createdAt,value
2022-10-12T13:02:06.563Z,16.80
2022-10-12T13:04:53.725Z,16.80
2022-10-12T13:07:42.617Z,16.80
2022-10-12T13:10:26.600Z,16.80
2022-10-12T13:13:09.821Z,16.80
2022-10-12T13:16:00.449Z,16.80
2022-10-12T13:18:48.122Z,16.90
2022-10-12T13:21:21.062Z,16.90
2022-10-12T13:23:59.556Z,16.90
2022-10-12T13:26:31.351Z,16.90
2022-10-12T13:29:03.026Z,16.90
2022-10-12T13:31:37.650Z,16.80
2022-10-12T13:34:13.343Z,16.80
2022-10-12T13:36:53.920Z,16.80
2022-10-12T13:39:23.668Z,16.70
2022-10-12T13:41:56.344Z,16.50
2022-10-12T13:44:29.131Z,16.50
2022-10-12T13:47:01.291Z,16.40
2022-10-12T13:49:32.316Z,16.30
2022-10-12T13:52:02.688Z,16.20
2022-10-12T13:54:40.575Z,16.30
2022-10-12T13:57:19.704Z,16.40
2022-10-12T13:59:52.500Z,16.40
2022-10-12T14:02:24.809Z,16.50
2022-10-12T14:04:55.496Z,16.50
2022-10-12T14:07:27.373Z,16.50
2022-10-12T14:10:00.700Z,16.40
2022-10-12T14:12:30.468Z,16.40
2022-10-12T14:14:59.509Z,16.40
2022-10-12T14:17:27.608Z,16.30
2022-10-12T14:19:59.942Z,16.40
2022-10-12T14:22:31.046Z,16.30
2022-10-12T14:25:11.865Z,16.30
2022-10-12T14:27:41.512Z,16.20
2022-10-12T14:30:18.932Z,16.20
2022-10-12T14:32:49.346Z,16.20
2022-10-12T14:35:26.255Z,16.20
2022-10-12T14:37:56.026Z,16.10
2022-10-12T14:40:38.580Z,16.10
2022-10-12T14:43:21.509Z,16.10
2022-10-12T14:45:51.455Z,16.10
2022-10-12T14:48:23.622Z,16.10
2022-10-12T14:50:51.861Z,16.00
2022-10-12T14:53:20.957Z,16.00
2022-10-12T14:55:53.734Z,16.00
2022-10-12T14:58:22.774Z,15.90
2022-10-12T15:00:50.959Z,15.90
2022-10-12T15:03:20.260Z,15.80
2022-10-12T15:05:48.351Z,15.80
2022-10-12T15:08:16.512Z,15.70
2022-10-12T15:10:45.715Z,15.70
2022-10-12T15:13:15.191Z,15.70
2022-10-12T15:15:46.458Z,15.60
2022-10-12T15:18:14.670Z,15.60
2022-10-12T15:20:49.010Z,15.50
2022-10-12T15:23:17.589Z,15.50
2022-10-12T15:25:51.577Z,15.50
2022-10-12T15:28:22.059Z,15.40
2022-10-12T15:33:39.325Z,15.40
2022-10-12T15:36:08.506Z,15.40
2022-10-12T15:38:37.032Z,15.30
2022-10-12T15:41:05.284Z,15.30
2022-10-12T15:43:36.906Z,15.30
2022-10-12T15:46:10.804Z,15.20
2022-10-12T15:48:40.079Z,15.20
2022-10-12T15:51:14.618Z,15.10
2022-10-12T15:53:44.807Z,15.10
2022-10-12T15:56:14.568Z,15.10
2022-10-12T15:58:44.484Z,15.00
2022-10-12T16:01:13.991Z,14.90
2022-10-12T16:03:42.862Z,14.90
2022-10-12T16:06:11.318Z,14.80
2022-10-12T16:08:39.872Z,14.70
2022-10-12T16:11:09.945Z,14.70
2022-10-12T16:13:44.274Z,14.60
2022-10-12T16:16:17.495Z,14.60
2022-10-12T16:18:45.805Z,14.50
2022-10-12T16:21:13.912Z,14.40
2022-10-12T16:23:42.355Z,14.40
2022-10-12T16:26:13.257Z,14.40
2022-10-12T16:28:41.868Z,14.20
2022-10-12T16:31:11.690Z,14.20
2022-10-12T16:33:41.428Z,14.10
2022-10-12T16:36:11.564Z,14.00
2022-10-12T16:38:39.670Z,14.00
2022-10-12T16:41:12.628Z,13.90
2022-10-12T16:43:41.451Z,13.80
2022-10-12T16:46:09.629Z,13.80
2022-10-12T16:48:38.323Z,13.70
2022-10-12T16:51:10.330Z,13.60
2022-10-12T16:53:39.754Z,13.60
2022-10-12T16:56:08.097Z,13.60
2022-10-12T16:58:36.222Z,13.50
2022-10-12T17:01:10.302Z,13.40
2022-10-12T17:03:39.768Z,13.40
2022-10-12T17:06:10.683Z,13.20
2022-10-12T17:08:39.670Z,13.20
2022-10-12T17:11:09.503Z,13.20
2022-10-12T17:13:38.531Z,13.10
2022-10-12T17:16:34.633Z,13.00
2022-10-12T17:19:03.001Z,12.90
2022-10-12T17:21:32.454Z,12.80
2022-10-12T17:24:01.702Z,12.80
2022-10-12T17:26:29.979Z,12.80
2022-10-12T17:28:58.096Z,12.70
2022-10-12T17:31:26.219Z,12.70
2022-10-12T17:33:54.349Z,12.70
2022-10-12T17:36:27.156Z,12.60
2022-10-12T17:38:59.511Z,12.50
2022-10-12T17:41:29.236Z,12.50
2022-10-12T17:43:57.989Z,12.40
2022-10-12T17:46:26.880Z,12.40
2022-10-12T17:48:56.259Z,12.40
2022-10-12T17:51:24.392Z,12.30
2022-10-12T17:53:52.595Z,12.30
2022-10-12T17:56:22.171Z,12.20
2022-10-12T17:58:54.552Z,12.20
2022-10-12T18:01:22.943Z,12.20
2022-10-12T18:03:52.059Z,12.20
2022-10-12T18:06:22.350Z,12.10
2022-10-12T18:08:51.185Z,12.10
2022-10-12T18:11:22.573Z,12.00
2022-10-12T18:13:52.336Z,12.00
2022-10-12T18:16:24.265Z,11.90
2022-10-12T18:18:54.589Z,11.90
2022-10-12T18:21:24.865Z,11.90
2022-10-12T18:23:53.902Z,11.80
2022-10-12T18:26:25.054Z,11.80
2022-10-12T18:28:55.558Z,11.80
2022-10-12T18:31:27.072Z,11.70
2022-10-12T18:33:56.164Z,11.60
2022-10-12T18:36:24.424Z,11.60
2022-10-12T18:38:52.783Z,11.60
2022-10-12T18:41:23.548Z,11.60
2022-10-12T18:43:57.595Z,11.60
2022-10-12T18:46:27.650Z,11.50
2022-10-12T18:48:56.151Z,11.50
2022-10-12T18:51:27.775Z,11.40
2022-10-12T18:53:57.341Z,11.40
2022-10-12T18:56:27.200Z,11.40
2022-10-12T18:58:56.118Z,11.40
2022-10-12T19:01:25.958Z,11.40
2022-10-12T19:03:55.761Z,11.30
2022-10-12T19:06:25.966Z,11.30
2022-10-12T19:08:55.716Z,11.20
2022-10-12T19:11:24.897Z,11.20
2022-10-12T19:13:55.474Z,11.20
2022-10-12T19:16:23.971Z,11.20
2022-10-12T19:18:57.548Z,11.10
2022-10-12T19:21:26.227Z,11.10
2022-10-12T19:23:54.640Z,11.10
2022-10-12T19:26:24.967Z,11.00
2022-10-12T19:28:56.391Z,10.90
2022-10-12T19:31:26.590Z,10.90
2022-10-12T19:33:58.086Z,11.00
2022-10-12T19:36:28.030Z,11.00
2022-10-12T19:38:57.629Z,11.00
2022-10-12T19:41:26.367Z,10.90
2022-10-12T19:43:57.935Z,11.00
2022-10-12T19:46:27.343Z,11.00
2022-10-12T19:48:57.791Z,11.00
2022-10-12T19:51:28.604Z,11.00
2022-10-12T19:54:01.388Z,11.00
2022-10-12T19:56:30.849Z,11.00
2022-10-12T19:59:00.728Z,11.00
2022-10-12T20:01:33.454Z,11.10
2022-10-12T20:04:05.963Z,11.10
2022-10-12T20:06:34.224Z,11.10
2022-10-12T20:09:02.864Z,11.10
2022-10-12T20:11:31.596Z,11.10
2022-10-12T20:14:02.092Z,11.00
2022-10-12T20:16:34.793Z,11.00
2022-10-12T20:19:03.672Z,11.00
2022-10-12T20:21:36.227Z,10.90
2022-10-12T20:24:09.127Z,10.90
2022-10-12T20:26:38.289Z,10.90
2022-10-12T20:29:09.350Z,10.90
2022-10-12T20:31:38.263Z,10.80
2022-10-12T20:34:07.790Z,10.90
2022-10-12T20:36:36.428Z,10.90
2022-10-12T20:39:05.178Z,10.90
2022-10-12T20:41:34.129Z,10.90
2022-10-12T20:44:02.719Z,11.00
2022-10-12T20:46:32.227Z,10.90
2022-10-12T20:49:02.740Z,10.90
2022-10-12T20:51:33.564Z,10.90
2022-10-12T20:54:02.047Z,10.90
2022-10-12T20:56:31.563Z,10.80
2022-10-12T20:59:00.929Z,10.80
2022-10-12T21:01:29.720Z,10.80
2022-10-12T21:03:59.262Z,10.70
2022-10-12T21:06:28.873Z,10.70
2022-10-12T21:08:58.591Z,10.70
2022-10-12T21:11:27.088Z,10.70
2022-10-12T21:13:56.848Z,10.70
2022-10-12T21:16:27.078Z,10.70
2022-10-12T21:18:56.174Z,10.60
2022-10-12T21:21:26.217Z,10.60
2022-10-12T21:23:56.178Z,10.60
2022-10-12T21:26:25.982Z,10.60
